Time;durP1;ratioP1;P1;durP2;ratioP2;P2;SDS_P1;SDS_P2;PMS_P1;PMS_P2;Temp;Humidity;BMP_temperature;BMP_pressure;BME280_temperature;BME280_humidity;BME280_pressure;Samples;Min_cycle;Max_cycle;Signal;HPM_P1;HPM_P2
2022/06/30 00:00:09;;;;;;;6.57;5.07;;;;;;;19.43;62.22;94810.66;5071800;28;20024;-73
2022/06/30 00:02:35;;;;;;;8.90;5.07;;;;;;;19.35;62.17;94806.28;5054589;28;20395;-73
2022/06/30 00:05:00;;;;;;;6.45;5.15;;;;;;;19.42;62.03;94803.78;5071555;28;20029;-73
2022/06/30 00:07:26;;;;;;;7.60;5.10;;;;;;;19.37;61.73;94800.84;5071480;28;20492;-74
2022/06/30 00:09:51;;;;;;;5.80;4.70;;;;;;;19.36;61.73;94793.94;5071212;28;20422;-73
2022/06/30 00:12:16;;;;;;;7.05;5.10;;;;;;;19.47;61.28;94798.75;5054794;28;20044;-73
2022/06/30 00:14:42;;;;;;;7.88;5.10;;;;;;;19.43;60.95;94789.59;5071447;28;20039;-73
2022/06/30 00:17:07;;;;;;;6.22;4.72;;;;;;;19.38;60.85;94781.41;5071143;28;20036;-74
2022/06/30 00:19:33;;;;;;;6.07;4.70;;;;;;;19.35;60.86;94787.84;5054499;28;20028;-73
2022/06/30 00:21:59;;;;;;;6.60;4.95;;;;;;;19.39;60.65;94794.41;5054664;28;20165;-73
2022/06/30 00:24:24;;;;;;;6.55;5.10;;;;;;;19.37;60.49;94793.75;5072375;28;20090;-73
2022/06/30 00:26:50;;;;;;;7.10;5.22;;;;;;;19.32;60.49;94784.78;5071043;28;20032;-73
2022/06/30 00:29:15;;;;;;;5.75;5.10;;;;;;;19.35;60.18;94792.31;5071801;28;20024;-73
2022/06/30 00:31:40;;;;;;;6.75;5.18;;;;;;;19.32;59.97;94779.50;5070290;28;20064;-74
2022/06/30 00:34:06;;;;;;;7.82;4.50;;;;;;;19.40;59.75;94788.13;5071036;28;20509;-73
2022/06/30 00:36:31;;;;;;;6.65;4.75;;;;;;;19.42;59.11;94780.88;5070826;28;20486;-73
2022/06/30 00:38:57;;;;;;;7.25;4.72;;;;;;;19.47;58.56;94780.31;5037151;28;20032;-73
2022/06/30 00:41:22;;;;;;;5.78;4.82;;;;;;;19.37;58.76;94771.88;5037281;28;20040;-73
2022/06/30 00:43:48;;;;;;;7.50;4.72;;;;;;;19.41;58.94;94779.22;5053287;28;20036;-73
2022/06/30 00:46:14;;;;;;;8.02;5.18;;;;;;;19.29;59.17;94766.72;5070392;28;20456;-73
2022/06/30 00:48:40;;;;;;;8.02;5.00;;;;;;;19.33;59.37;94773.22;5070614;28;20032;-73
2022/06/30 00:51:06;;;;;;;5.75;4.90;;;;;;;19.37;59.79;94783.22;5070523;28;20086;-73
2022/06/30 00:53:34;;;;;;;7.05;5.30;;;;;;;19.42;60.22;94785.34;5053402;28;20033;-73
2022/06/30 00:56:01;;;;;;;7.18;5.07;;;;;;;19.43;60.69;94786.94;5037305;28;20418;-73
2022/06/30 00:58:27;;;;;;;10.93;5.25;;;;;;;19.42;60.69;94790.59;5037856;28;20052;-73
2022/06/30 01:00:52;;;;;;;7.07;5.03;;;;;;;19.46;60.02;94786.59;5036520;28;20032;-73
2022/06/30 01:03:18;;;;;;;7.20;5.15;;;;;;;19.47;59.93;94790.84;5053782;28;20032;-73
2022/06/30 01:05:43;;;;;;;7.82;5.13;;;;;;;19.36;61.09;94801.84;5053724;28;20085;-73
2022/06/30 01:08:08;;;;;;;8.15;5.18;;;;;;;19.30;60.93;94798.09;5053211;28;20028;-73
2022/06/30 01:13:18;;;;;;;6.38;5.07;;;;;;;19.18;62.57;94792.47;5070291;28;20090;-73
2022/06/30 01:15:43;;;;;;;5.63;5.00;;;;;;;19.22;62.73;94792.94;5053800;28;20024;-73
2022/06/30 01:18:09;;;;;;;7.75;5.40;;;;;;;19.08;62.53;94777.94;5069597;28;20032;-73
2022/06/30 01:20:34;;;;;;;6.85;5.22;;;;;;;19.13;62.21;94794.84;5036782;28;20043;-74
2022/06/30 01:23:01;;;;;;;6.05;5.43;;;;;;;19.01;61.99;94788.38;5033613;28;20456;-73
2022/06/30 01:25:27;;;;;;;8.55;5.70;;;;;;;19.00;61.90;94793.81;5017472;28;20029;-73
2022/06/30 01:27:53;;;;;;;6.10;5.50;;;;;;;18.93;62.30;94802.44;5041610;28;20086;-73
2022/06/30 01:30:18;;;;;;;6.90;4.97;;;;;;;18.85;61.93;94776.19;5069607;28;20039;-73
2022/06/30 01:32:44;;;;;;;8.30;5.38;;;;;;;18.96;62.39;94790.72;5068739;28;20061;-73
2022/06/30 01:35:09;;;;;;;8.27;4.88;;;;;;;18.91;62.17;94775.47;5069460;28;20422;-73
2022/06/30 01:37:47;;;;;;;7.88;5.30;;;;;;;18.91;62.44;94786.00;5069926;28;20036;-73
2022/06/30 01:40:12;;;;;;;7.13;5.47;;;;;;;18.87;62.82;94783.91;5069575;28;20516;-73
2022/06/30 01:42:38;;;;;;;7.63;5.13;;;;;;;18.85;62.39;94770.91;5036403;28;20036;-73
2022/06/30 01:45:04;;;;;;;7.10;5.18;;;;;;;18.81;62.09;94771.47;5070958;28;20043;-73
2022/06/30 01:47:29;;;;;;;5.97;5.13;;;;;;;18.71;62.35;94764.59;5052861;28;20082;-73
2022/06/30 01:49:55;;;;;;;7.18;5.20;;;;;;;18.62;62.59;94757.78;5052735;28;20040;-73
2022/06/30 01:52:20;;;;;;;5.97;5.35;;;;;;;18.60;62.52;94767.66;5069719;28;20260;-73
2022/06/30 01:54:46;;;;;;;5.60;5.10;;;;;;;18.58;62.74;94769.63;5068686;28;20043;-73
2022/06/30 01:57:11;;;;;;;6.82;5.30;;;;;;;18.62;61.56;94767.50;5069712;28;20028;-74
2022/06/30 01:59:36;;;;;;;8.02;5.32;;;;;;;18.67;61.71;94775.69;5052832;28;20451;-73
2022/06/30 02:02:02;;;;;;;7.05;5.70;;;;;;;18.49;62.06;94770.72;5052645;28;20036;-73
2022/06/30 02:07:11;;;;;;;8.57;5.18;;;;;;;18.52;62.07;94783.50;5069456;28;20048;-73
2022/06/30 02:09:37;;;;;;;5.65;5.10;;;;;;;18.48;62.30;94787.50;5070928;28;20032;-73
2022/06/30 02:14:46;;;;;;;8.05;5.30;;;;;;;18.51;64.71;94790.59;5055090;28;20034;-74
2022/06/30 02:17:12;;;;;;;6.38;5.13;;;;;;;18.46;65.19;94784.22;5052744;28;20020;-74
2022/06/30 02:19:37;;;;;;;6.68;5.53;;;;;;;18.42;65.25;94790.84;5070290;28;20043;-74
2022/06/30 02:22:03;;;;;;;8.15;5.57;;;;;;;18.42;63.14;94794.28;5052297;28;20042;-74
2022/06/30 02:24:28;;;;;;;6.53;5.75;;;;;;;18.50;63.22;94794.22;5069206;28;20028;-74
2022/06/30 02:26:54;;;;;;;6.75;5.60;;;;;;;18.49;63.97;94782.03;5069253;28;20086;-74
2022/06/30 02:29:19;;;;;;;7.85;5.72;;;;;;;18.44;64.01;94783.56;5052364;28;20098;-73
2022/06/30 02:31:44;;;;;;;6.68;5.93;;;;;;;18.32;64.09;94770.00;5068843;28;20063;-74
2022/06/30 02:34:10;;;;;;;7.28;5.90;;;;;;;18.39;64.17;94785.94;5052451;28;20036;-74
2022/06/30 02:36:35;;;;;;;8.05;5.90;;;;;;;18.31;64.62;94797.31;5052444;28;20052;-74
2022/06/30 02:39:01;;;;;;;7.40;6.18;;;;;;;18.21;64.94;94800.16;5052474;28;20589;-73
2022/06/30 02:41:26;;;;;;;8.13;6.55;;;;;;;18.01;65.88;94806.84;5070137;28;20032;-73
2022/06/30 02:43:52;;;;;;;7.05;6.35;;;;;;;17.96;66.20;94801.28;5054223;28;20029;-73
2022/06/30 02:46:18;;;;;;;6.80;5.72;;;;;;;17.97;66.28;94798.50;5056324;28;20087;-73
2022/06/30 02:48:44;;;;;;;9.02;5.97;;;;;;;18.02;66.21;94800.59;5039664;28;20021;-73
2022/06/30 02:51:09;;;;;;;7.28;6.32;;;;;;;18.05;66.16;94800.25;5074000;28;20028;-73
2022/06/30 02:53:35;;;;;;;6.63;6.03;;;;;;;18.06;65.93;94801.91;5074227;28;20500;-73
2022/06/30 02:56:00;;;;;;;7.07;6.20;;;;;;;17.91;66.32;94801.00;5072927;28;20402;-73
2022/06/30 02:58:25;;;;;;;8.25;6.22;;;;;;;17.85;66.13;94790.16;5038968;28;20033;-73
2022/06/30 03:00:51;;;;;;;8.00;6.15;;;;;;;17.95;66.03;94807.56;5072438;28;20172;-73
2022/06/30 03:03:16;;;;;;;8.10;6.80;;;;;;;17.94;66.19;94803.28;5055756;28;20024;-73
2022/06/30 03:05:42;;;;;;;6.90;6.30;;;;;;;17.98;66.01;94797.50;5055182;28;20035;-73
2022/06/30 03:08:07;;;;;;;11.23;6.72;;;;;;;18.02;65.54;94800.59;5072565;28;20478;-73
2022/06/30 03:10:33;;;;;;;9.27;6.35;;;;;;;17.98;65.06;94800.13;5072417;28;20517;-73
2022/06/30 03:12:58;;;;;;;8.65;6.38;;;;;;;17.95;65.11;94805.75;5038865;28;20126;-73
2022/06/30 03:15:23;;;;;;;9.63;6.10;;;;;;;18.00;65.24;94799.97;5055208;28;20040;-73
2022/06/30 03:17:49;;;;;;;8.63;6.38;;;;;;;17.95;65.44;94799.66;5055748;28;20048;-74
2022/06/30 03:20:14;;;;;;;10.90;6.70;;;;;;;17.92;65.51;94792.13;5055787;28;20035;-73
2022/06/30 03:22:40;;;;;;;7.38;6.50;;;;;;;17.82;66.06;94795.78;5072295;28;20457;-73
2022/06/30 03:25:05;;;;;;;8.13;6.28;;;;;;;17.85;66.20;94792.78;5072265;28;20105;-74
2022/06/30 03:27:31;;;;;;;8.88;6.30;;;;;;;17.85;66.32;94800.69;5072047;28;20043;-73
2022/06/30 03:29:56;;;;;;;7.05;6.35;;;;;;;17.81;65.85;94798.59;5055515;28;20032;-73
2022/06/30 03:32:22;;;;;;;7.28;6.40;;;;;;;17.82;65.51;94787.06;5073214;28;20064;-74
2022/06/30 03:34:48;;;;;;;7.88;6.05;;;;;;;17.94;65.50;94801.50;5055777;28;20478;-73
2022/06/30 03:37:13;;;;;;;7.97;6.15;;;;;;;18.06;64.73;94796.66;5051328;28;20043;-74
2022/06/30 03:39:39;;;;;;;8.48;6.20;;;;;;;18.18;64.65;94811.03;5072089;28;20421;-74
2022/06/30 03:42:05;;;;;;;6.93;5.85;;;;;;;18.30;63.96;94806.19;5038526;28;20032;-73
2022/06/30 03:44:30;;;;;;;6.70;5.90;;;;;;;18.29;64.06;94802.72;5071081;28;20393;-74
2022/06/30 03:46:56;;;;;;;7.28;6.10;;;;;;;18.37;63.95;94801.88;5055126;28;20040;-74
2022/06/30 03:49:22;;;;;;;7.43;6.28;;;;;;;18.40;63.98;94796.25;5071607;28;20029;-74
2022/06/30 03:51:48;;;;;;;8.13;5.93;;;;;;;18.35;64.19;94795.16;5038442;28;20070;-74
2022/06/30 03:54:13;;;;;;;8.48;6.20;;;;;;;18.37;64.58;94798.44;5037714;28;20025;-74
2022/06/30 03:56:39;;;;;;;8.50;6.07;;;;;;;18.46;64.47;94810.50;5055105;28;20089;-74
2022/06/30 03:59:04;;;;;;;7.40;5.90;;;;;;;18.65;63.79;94812.66;5071914;28;20414;-74
2022/06/30 04:01:29;;;;;;;8.57;6.60;;;;;;;18.80;63.31;94806.66;5054932;28;20391;-75
2022/06/30 04:03:55;;;;;;;9.70;5.88;;;;;;;18.75;63.42;94789.59;5054571;28;20037;-74
2022/06/30 04:06:20;;;;;;;7.30;6.40;;;;;;;18.95;62.79;94807.53;5071543;28;20024;-73
2022/06/30 04:08:46;;;;;;;8.38;6.47;;;;;;;19.02;62.51;94807.63;5071107;28;20025;-73
2022/06/30 04:11:11;;;;;;;8.43;6.65;;;;;;;19.25;62.16;94812.81;5071298;28;20040;-73
2022/06/30 04:13:37;;;;;;;6.90;6.00;;;;;;;20.19;58.95;94802.50;5071442;28;20479;-74
2022/06/30 04:16:02;;;;;;;6.75;6.15;;;;;;;21.03;56.52;94802.69;5054538;28;20036;-74
2022/06/30 04:18:28;;;;;;;7.93;5.70;;;;;;;21.90;54.12;94800.56;5053856;28;20082;-74
2022/06/30 04:20:53;;;;;;;6.95;5.85;;;;;;;22.67;52.10;94805.50;5037568;28;20098;-74
2022/06/30 04:23:20;;;;;;;7.35;5.88;;;;;;;23.26;50.11;94781.88;5054746;28;20032;-74
2022/06/30 04:25:46;;;;;;;6.57;5.55;;;;;;;23.95;48.01;94797.25;5071424;28;20024;-74
2022/06/30 04:28:11;;;;;;;10.20;5.85;;;;;;;24.15;47.79;94799.78;5070298;28;20020;-74
2022/06/30 04:33:21;;;;;;;7.93;5.22;;;;;;;25.70;44.28;94788.66;5071377;28;20066;-74
2022/06/30 04:35:46;;;;;;;9.50;5.20;;;;;;;26.25;42.27;94791.31;5071239;28;20497;-74
2022/06/30 04:38:12;;;;;;;6.38;5.22;;;;;;;26.80;41.71;94797.53;5063089;28;20046;-74
2022/06/30 04:43:21;;;;;;;6.00;5.30;;;;;;;27.57;39.53;94792.97;5052442;28;20139;-74
2022/06/30 04:45:46;;;;;;;6.00;5.40;;;;;;;27.69;39.25;94803.63;5034572;28;20032;-74
2022/06/30 04:48:12;;;;;;;10.23;6.03;;;;;;;27.25;40.99;94805.06;5051113;28;20083;-74
2022/06/30 04:50:39;;;;;;;9.00;7.00;;;;;;;25.85;43.53;94813.09;5047842;28;20501;-74
2022/06/30 04:53:04;;;;;;;7.22;5.68;;;;;;;24.97;45.81;94810.56;5067494;28;20033;-74
2022/06/30 04:55:29;;;;;;;10.63;6.60;;;;;;;24.62;45.98;94795.06;5034426;28;20028;-74
2022/06/30 04:57:55;;;;;;;8.60;6.43;;;;;;;24.48;47.19;94807.63;5051057;28;20036;-74
2022/06/30 05:00:20;;;;;;;9.35;6.43;;;;;;;24.39;47.33;94811.53;5052280;28;20033;-73
2022/06/30 05:02:46;;;;;;;10.10;6.78;;;;;;;24.35;47.48;94813.00;5052912;28;20478;-75
2022/06/30 05:05:11;;;;;;;8.32;6.50;;;;;;;24.36;47.26;94803.19;5053531;28;20024;-75
2022/06/30 05:07:37;;;;;;;8.30;6.10;;;;;;;24.18;46.48;94801.22;5071472;28;20039;-75
2022/06/30 05:10:03;;;;;;;9.25;6.13;;;;;;;24.30;47.43;94807.50;5053887;28;20033;-75
2022/06/30 05:12:28;;;;;;;11.55;5.57;;;;;;;24.33;46.64;94807.06;5070389;28;20033;-75
2022/06/30 05:14:54;;;;;;;8.00;6.43;;;;;;;24.09;46.42;94806.75;5070521;28;20029;-74
2022/06/30 05:17:19;;;;;;;13.90;6.00;;;;;;;23.68;48.42;94804.47;5069374;28;20032;-74
2022/06/30 05:19:45;;;;;;;7.63;5.63;;;;;;;23.76;48.96;94812.19;5070202;28;20029;-74
2022/06/30 05:22:10;;;;;;;8.52;6.10;;;;;;;24.11;48.86;94811.06;5070185;28;20029;-74
2022/06/30 05:27:19;;;;;;;9.82;5.85;;;;;;;24.35;47.86;94806.84;5056698;28;20105;-74
2022/06/30 05:29:45;;;;;;;12.60;6.40;;;;;;;24.39;47.87;94818.69;5036040;28;20032;-74
2022/06/30 05:32:10;;;;;;;9.52;6.07;;;;;;;24.45;48.22;94816.00;5053537;28;20449;-74
2022/06/30 05:34:36;;;;;;;12.68;6.70;;;;;;;24.49;47.89;94817.22;5053109;28;20036;-74
2022/06/30 05:37:02;;;;;;;16.15;7.10;;;;;;;24.41;47.83;94806.81;5071555;28;20042;-74
2022/06/30 05:39:28;;;;;;;11.88;6.93;;;;;;;24.33;48.05;94815.03;5052510;28;20036;-74
2022/06/30 05:41:53;;;;;;;15.85;6.78;;;;;;;24.18;48.49;94820.63;5069950;28;20040;-74
2022/06/30 05:44:19;;;;;;;10.20;6.70;;;;;;;24.23;48.57;94820.78;5053092;28;20033;-76
2022/06/30 05:46:44;;;;;;;12.38;6.72;;;;;;;24.27;48.11;94824.66;5069779;28;20246;-73
2022/06/30 05:49:10;;;;;;;9.52;5.93;;;;;;;24.20;47.50;94821.22;5069644;28;20032;-73
2022/06/30 05:51:36;;;;;;;9.45;6.00;;;;;;;24.27;47.68;94826.50;5069002;28;20056;-74
2022/06/30 05:54:01;;;;;;;8.70;6.18;;;;;;;24.26;46.80;94828.31;5051130;28;20060;-75
2022/06/30 05:56:27;;;;;;;9.00;5.88;;;;;;;24.28;47.37;94834.25;5052923;28;20477;-75
2022/06/30 05:58:52;;;;;;;13.60;6.65;;;;;;;24.06;47.84;94841.69;5052340;28;20024;-74
2022/06/30 06:01:18;;;;;;;11.07;7.38;;;;;;;24.05;48.43;94832.09;5053002;28;20032;-74
2022/06/30 06:03:44;;;;;;;7.75;6.28;;;;;;;24.02;49.01;94843.13;5036475;28;20483;-74
2022/06/30 06:06:09;;;;;;;8.95;5.90;;;;;;;23.97;48.32;94842.94;5069651;28;20089;-75
2022/06/30 06:08:34;;;;;;;10.13;5.40;;;;;;;24.05;47.03;94839.25;5069594;28;20508;-76
2022/06/30 06:11:01;;;;;;;5.85;5.25;;;;;;;24.09;46.75;94835.13;5032609;28;20499;-81
2022/06/30 06:13:27;;;;;;;7.22;5.30;;;;;;;24.21;46.12;94837.94;5049409;28;20120;-75
2022/06/30 06:15:52;;;;;;;10.93;5.50;;;;;;;24.31;45.66;94848.94;5050925;28;20048;-76
2022/06/30 06:18:17;;;;;;;7.72;5.30;;;;;;;24.42;44.98;94840.31;5061260;28;20122;-75
2022/06/30 06:20:43;;;;;;;5.60;5.05;;;;;;;24.36;45.80;94838.50;5051895;28;20029;-76
2022/06/30 06:23:08;;;;;;;6.75;5.43;;;;;;;24.43;45.54;94834.00;5062741;28;20028;-76
2022/06/30 06:25:34;;;;;;;7.25;5.70;;;;;;;24.56;46.43;94846.38;5039702;28;20075;-76
2022/06/30 06:30:44;;;;;;;8.10;5.05;;;;;;;24.71;45.10;94836.31;5055543;28;20051;-76
2022/06/30 06:33:10;;;;;;;7.97;5.43;;;;;;;24.88;46.03;94835.78;5064143;28;20048;-75
2022/06/30 06:35:35;;;;;;;6.97;5.68;;;;;;;25.04;46.11;94826.47;5065313;28;20047;-75
2022/06/30 06:38:01;;;;;;;8.13;5.47;;;;;;;25.16;45.15;94825.59;5061911;28;20082;-75
2022/06/30 06:40:27;;;;;;;7.05;5.60;;;;;;;25.28;45.66;94833.66;5064723;28;20036;-75
2022/06/30 06:42:52;;;;;;;11.95;5.95;;;;;;;25.32;45.71;94834.81;5032885;28;20048;-75
2022/06/30 06:45:18;;;;;;;6.60;5.95;;;;;;;25.22;45.45;94826.56;5060049;28;20459;-75
2022/06/30 06:47:43;;;;;;;7.68;5.95;;;;;;;25.24;45.39;94829.81;5031288;28;20480;-75
2022/06/30 06:50:09;;;;;;;9.23;5.85;;;;;;;25.30;45.82;94820.16;5039387;28;20041;-75
2022/06/30 06:52:34;;;;;;;8.32;5.55;;;;;;;25.50;46.06;94817.31;5056848;28;20085;-73
2022/06/30 06:55:00;;;;;;;9.55;5.68;;;;;;;25.59;45.04;94813.31;5062523;28;20060;-75
2022/06/30 06:57:34;;;;;;;10.55;5.75;;;;;;;25.63;46.50;94820.66;5048638;28;20525;-75
2022/06/30 07:00:01;;;;;;;6.95;5.90;;;;;;;25.82;44.94;94826.78;5039669;28;20090;-76
2022/06/30 07:02:26;;;;;;;11.85;5.85;;;;;;;25.79;45.25;94827.22;5036831;28;20167;-76
2022/06/30 07:04:52;;;;;;;10.48;5.90;;;;;;;25.91;45.09;94821.19;5047098;28;20037;-76
2022/06/30 07:07:17;;;;;;;7.90;5.72;;;;;;;26.10;44.40;94822.00;5064944;28;20037;-76
2022/06/30 07:09:43;;;;;;;8.80;5.60;;;;;;;26.19;44.00;94818.81;5053301;28;20507;-75
2022/06/30 07:12:08;;;;;;;14.02;6.07;;;;;;;26.36;44.21;94824.34;5050317;28;20498;-76
2022/06/30 07:14:37;;;;;;;8.82;6.10;;;;;;;26.42;43.10;94822.63;5049799;28;20044;-77
2022/06/30 07:17:03;;;;;;;10.52;5.70;;;;;;;26.35;43.48;94805.91;5060215;28;20075;-79
2022/06/30 07:19:28;;;;;;;7.60;5.55;;;;;;;26.55;44.47;94819.00;5034015;28;20333;-78
2022/06/30 07:21:54;;;;;;;8.80;5.63;;;;;;;26.56;44.62;94815.31;5066778;28;20101;-78
2022/06/30 07:24:20;;;;;;;10.57;6.47;;;;;;;26.67;44.15;94820.66;5068266;28;20405;-80
2022/06/30 07:26:45;;;;;;;8.27;5.30;;;;;;;26.54;43.75;94804.06;5068615;28;20032;-81
2022/06/30 07:29:11;;;;;;;9.65;5.88;;;;;;;26.65;43.99;94792.63;5069191;28;20039;-78
2022/06/30 07:31:36;;;;;;;6.50;5.65;;;;;;;26.63;43.32;94790.19;5069346;28;20052;-77
2022/06/30 07:34:02;;;;;;;9.15;5.20;;;;;;;26.93;43.75;94815.97;5063751;28;20036;-77
2022/06/30 07:36:28;;;;;;;8.40;5.53;;;;;;;26.94;44.80;94788.28;5055355;28;20475;-77
2022/06/30 07:38:54;;;;;;;9.30;5.65;;;;;;;26.94;44.53;94786.44;5053783;28;20032;-76
2022/06/30 07:41:19;;;;;;;9.60;5.55;;;;;;;27.21;43.88;94818.03;5060902;28;20090;-76
2022/06/30 07:43:45;;;;;;;6.65;5.57;;;;;;;27.29;43.76;94814.22;5067691;28;20039;-76
2022/06/30 07:46:12;;;;;;;8.20;5.68;;;;;;;27.37;42.41;94820.00;5061067;28;20040;-78
2022/06/30 07:48:37;;;;;;;7.30;5.75;;;;;;;27.40;43.23;94810.72;5068017;28;20102;-77
2022/06/30 07:51:03;;;;;;;6.53;5.82;;;;;;;27.15;42.15;94793.06;5069573;28;20059;-77
2022/06/30 07:53:28;;;;;;;9.38;4.95;;;;;;;27.37;43.11;94814.69;5061472;28;20073;-77
2022/06/30 07:55:54;;;;;;;8.07;5.30;;;;;;;27.47;42.01;94807.94;5049172;28;20033;-77
2022/06/30 07:58:19;;;;;;;7.78;4.70;;;;;;;27.31;42.32;94772.94;5063304;28;20037;-77
2022/06/30 08:00:45;;;;;;;8.40;4.78;;;;;;;27.70;42.11;94801.81;5067662;28;20482;-79
2022/06/30 08:03:10;;;;;;;8.25;5.53;;;;;;;27.59;41.53;94772.22;5051275;28;20033;-77
2022/06/30 08:05:36;;;;;;;8.68;5.20;;;;;;;27.68;42.13;94777.22;5050911;28;20029;-77
2022/06/30 08:08:01;;;;;;;5.95;5.15;;;;;;;27.70;40.62;94764.44;5051276;28;20024;-78
2022/06/30 08:10:27;;;;;;;5.85;4.90;;;;;;;27.84;40.96;94809.34;5062972;28;20686;-78
2022/06/30 08:12:53;;;;;;;6.75;4.93;;;;;;;27.63;41.33;94757.34;5054601;28;20056;-78
2022/06/30 08:15:18;;;;;;;5.00;4.50;;;;;;;28.03;41.88;94795.84;5051042;28;20453;-77
2022/06/30 08:17:44;;;;;;;7.53;4.95;;;;;;;27.84;39.97;94766.66;5051240;28;20040;-78
2022/06/30 08:20:09;;;;;;;6.28;4.65;;;;;;;27.97;40.69;94754.91;5061347;28;20033;-78
2022/06/30 08:22:35;;;;;;;8.30;5.40;;;;;;;28.32;39.77;94788.66;5070332;28;20032;-76
2022/06/30 08:25:00;;;;;;;5.70;4.60;;;;;;;28.25;39.31;94779.97;5070751;28;20040;-80
2022/06/30 08:27:26;;;;;;;5.60;4.20;;;;;;;28.36;38.58;94789.00;5073343;28;20484;-80
2022/06/30 08:29:51;;;;;;;6.03;4.22;;;;;;;28.36;38.20;94787.16;5072384;28;20032;-80
2022/06/30 08:32:17;;;;;;;5.43;4.32;;;;;;;28.22;38.81;94767.94;5072663;28;20522;-80
2022/06/30 08:34:42;;;;;;;5.60;3.88;;;;;;;28.29;37.30;94794.50;5053432;28;20028;-75
2022/06/30 08:37:08;;;;;;;6.97;4.38;;;;;;;28.40;38.49;94790.97;5069744;28;20039;-76
2022/06/30 08:42:19;;;;;;;6.10;4.32;;;;;;;28.58;38.12;94792.66;5071427;28;20043;-75
2022/06/30 08:45:13;;;;;;;6.05;4.40;;;;;;;28.65;38.26;94795.19;5036922;28;20032;-76
2022/06/30 08:47:30;;;;;;;6.68;4.50;;;;;;;28.74;38.72;94796.41;5057442;28;20032;-79
2022/06/30 08:49:56;;;;;;;7.57;4.55;;;;;;;28.69;38.07;94785.63;5051721;28;20036;-79
2022/06/30 08:52:22;;;;;;;7.00;4.65;;;;;;;28.78;37.71;94792.22;5051600;28;20475;-79
2022/06/30 08:54:51;;;;;;;5.82;4.13;;;;;;;28.85;37.04;94798.22;5053749;28;20415;-79
2022/06/30 08:57:17;;;;;;;8.10;4.45;;;;;;;28.90;36.55;94797.50;5066792;28;20040;-82
2022/06/30 08:59:43;;;;;;;9.07;4.47;;;;;;;29.04;36.59;94795.34;5069730;28;20410;-82
2022/06/30 09:02:08;;;;;;;5.00;4.00;;;;;;;29.07;34.68;94793.00;5069230;28;20113;-79
2022/06/30 09:04:34;;;;;;;4.80;3.88;;;;;;;29.05;35.62;94791.59;5067468;28;20040;-79
2022/06/30 09:06:59;;;;;;;6.90;4.28;;;;;;;28.98;37.95;94794.41;5066635;28;20040;-79
2022/06/30 09:09:25;;;;;;;7.55;4.53;;;;;;;29.02;38.00;94792.88;5066154;28;20032;-79
2022/06/30 09:11:51;;;;;;;8.13;4.47;;;;;;;29.12;37.57;94793.06;5061188;28;20067;-78
2022/06/30 09:14:35;;;;;;;8.27;4.53;;;;;;;29.20;37.01;94791.03;5065013;28;20033;-78
2022/06/30 09:17:03;;;;;;;7.80;4.40;;;;;;;29.17;37.29;94784.34;5066404;28;20031;-80
2022/06/30 09:19:29;;;;;;;6.18;4.47;;;;;;;29.27;38.07;94786.34;5069120;28;20185;-80
2022/06/30 09:22:04;;;;;;;5.47;4.50;;;;;;;29.31;37.38;94782.09;5071220;28;20115;-84
2022/06/30 09:24:29;;;;;;;7.70;4.80;;;;;;;29.39;37.01;94779.84;5071691;28;20036;-84
2022/06/30 09:27:19;;;;;;;5.35;4.30;;;;;;;29.51;37.85;94778.94;5069660;28;20028;-79
2022/06/30 09:29:52;;;;;;;5.30;4.25;;;;;;;29.55;37.89;94772.03;5066932;28;20060;-76
2022/06/30 09:32:17;;;;;;;6.38;4.43;;;;;;;29.68;37.88;94774.38;5061515;28;20048;-78
2022/06/30 09:34:43;;;;;;;10.45;4.80;;;;;;;29.78;37.80;94768.34;5069340;28;20035;-78
2022/06/30 09:37:20;;;;;;;5.70;4.72;;;;;;;29.79;38.25;94768.13;5068640;28;20067;-82
2022/06/30 09:39:46;;;;;;;8.25;4.88;;;;;;;29.84;38.96;94760.16;5060424;28;20161;-80
2022/06/30 09:42:12;;;;;;;5.57;3.85;;;;;;;29.93;38.06;94770.44;5067405;28;20486;-80
2022/06/30 09:44:37;;;;;;;5.78;4.35;;;;;;;29.81;36.71;94751.78;5069338;28;20036;-80
2022/06/30 09:47:08;;;;;;;8.73;4.47;;;;;;;29.96;37.54;94769.94;5067538;28;20048;-81
2022/06/30 09:49:46;;;;;;;6.18;4.22;;;;;;;29.84;35.42;94762.84;5068922;28;20028;-79
2022/06/30 09:52:20;;;;;;;6.88;4.30;;;;;;;29.87;35.96;94766.88;5065174;28;20068;-78
2022/06/30 09:55:04;;;;;;;6.22;4.35;;;;;;;29.94;36.56;94761.34;5069904;28;20035;-78
2022/06/30 09:57:42;;;;;;;5.10;4.10;;;;;;;29.99;36.54;94759.53;5069915;28;20037;-78
2022/06/30 10:00:09;;;;;;;6.15;4.38;;;;;;;30.20;35.95;94771.28;5071641;28;20047;-78
2022/06/30 10:02:44;;;;;;;7.28;4.40;;;;;;;30.31;35.83;94760.69;5068563;28;20565;-79
2022/06/30 10:05:10;;;;;;;6.47;4.10;;;;;;;30.11;35.00;94756.72;5058895;28;20111;-78
2022/06/30 10:07:36;;;;;;;5.65;4.18;;;;;;;30.16;35.28;94754.09;5069605;28;20264;-78
2022/06/30 10:10:02;;;;;;;6.95;4.50;;;;;;;30.08;36.80;94751.84;5051657;28;20417;-78
2022/06/30 10:12:28;;;;;;;6.93;4.25;;;;;;;30.19;36.39;94744.75;5068127;28;20417;-79
2022/06/30 10:14:54;;;;;;;4.93;4.20;;;;;;;30.37;36.20;94757.84;5069007;28;20036;-78
2022/06/30 10:17:27;;;;;;;9.15;4.22;;;;;;;30.48;36.03;94750.72;5051506;28;20140;-78
2022/06/30 10:19:53;;;;;;;6.90;4.28;;;;;;;30.36;37.44;94723.25;5068445;28;20036;-78
2022/06/30 10:22:19;;;;;;;4.68;4.18;;;;;;;30.57;36.45;94743.84;5068183;28;20103;-79
2022/06/30 10:24:45;;;;;;;8.68;4.20;;;;;;;30.59;35.82;94741.72;5068051;28;20568;-79
2022/06/30 10:27:12;;;;;;;4.57;4.05;;;;;;;30.57;34.05;94743.03;5051452;28;20685;-78
2022/06/30 10:29:40;;;;;;;10.43;4.03;;;;;;;30.59;35.21;94740.88;5067943;28;20448;-78
2022/06/30 10:32:09;;;;;;;5.00;4.47;;;;;;;30.54;35.35;94741.66;5067401;28;20052;-78
2022/06/30 10:34:37;;;;;;;4.70;4.20;;;;;;;30.37;35.62;94741.78;5050920;28;20091;-79
2022/06/30 10:37:17;;;;;;;5.47;4.25;;;;;;;30.35;34.92;94719.78;5067743;28;20075;-79
2022/06/30 10:39:58;;;;;;;4.93;3.42;;;;;;;30.46;35.52;94734.88;5052872;28;20119;-79
2022/06/30 10:42:46;;;;;;;5.53;4.03;;;;;;;30.48;36.25;94734.66;5069778;28;20098;-78
2022/06/30 10:45:27;;;;;;;5.75;4.30;;;;;;;30.56;35.90;94736.84;5069634;28;20107;-79
2022/06/30 10:48:02;;;;;;;6.55;3.58;;;;;;;30.60;34.92;94731.81;5069707;28;20311;-78
2022/06/30 10:50:34;;;;;;;4.32;3.83;;;;;;;30.61;34.89;94726.19;5071026;28;20153;-79
2022/06/30 10:53:00;;;;;;;4.43;3.80;;;;;;;30.57;35.38;94732.31;5070687;28;20041;-78
2022/06/30 10:55:26;;;;;;;5.53;3.70;;;;;;;30.61;33.87;94728.06;5053370;28;20036;-79
2022/06/30 10:58:07;;;;;;;11.55;3.50;;;;;;;30.52;33.25;94722.34;5069588;28;20040;-78
2022/06/30 11:01:10;;;;;;;5.95;3.60;;;;;;;30.60;35.16;94721.88;5069558;28;20028;-79
2022/06/30 11:03:37;;;;;;;6.47;3.78;;;;;;;30.69;33.80;94712.31;5069557;28;20036;-78
2022/06/30 11:06:13;;;;;;;6.53;3.70;;;;;;;30.70;34.13;94711.25;5073326;28;20131;-78
2022/06/30 11:11:22;;;;;;;4.22;3.80;;;;;;;30.84;33.50;94709.00;5074494;28;20055;-79
2022/06/30 11:14:03;;;;;;;4.70;3.88;;;;;;;30.88;34.41;94702.03;5074286;28;20021;-78
2022/06/30 11:16:32;;;;;;;4.57;3.70;;;;;;;30.85;34.15;94701.75;5074328;28;20094;-78
2022/06/30 11:18:58;;;;;;;6.47;3.70;;;;;;;30.89;35.22;94702.84;5056540;28;20093;-79
2022/06/30 11:21:23;;;;;;;10.07;3.78;;;;;;;30.85;34.37;94689.16;5073231;28;20048;-78
2022/06/30 11:23:49;;;;;;;4.07;3.45;;;;;;;30.86;34.26;94681.91;5056351;28;20094;-78
2022/06/30 11:29:04;;;;;;;4.40;3.35;;;;;;;30.69;34.73;94687.38;5074043;28;20520;-78
2022/06/30 11:31:34;;;;;;;7.10;3.33;;;;;;;30.79;36.73;94692.03;5073894;28;20052;-78
2022/06/30 11:34:05;;;;;;;5.43;3.70;;;;;;;30.91;35.22;94684.63;5056338;28;20047;-78
2022/06/30 11:36:31;;;;;;;4.05;3.60;;;;;;;30.87;34.93;94679.00;5072875;28;20066;-78
2022/06/30 11:38:59;;;;;;;4.82;3.50;;;;;;;30.92;34.70;94684.41;5072933;28;20111;-79
2022/06/30 11:44:10;;;;;;;6.30;3.35;;;;;;;30.82;34.09;94681.63;5073208;28;20067;-79
2022/06/30 11:46:52;;;;;;;5.53;3.53;;;;;;;30.96;34.87;94676.63;5072664;28;20044;-78
2022/06/30 11:49:17;;;;;;;5.72;3.28;;;;;;;30.98;34.97;94668.31;5072499;28;20555;-79
2022/06/30 11:51:43;;;;;;;4.20;3.15;;;;;;;31.09;34.45;94676.19;5072543;28;20033;-79
2022/06/30 11:54:09;;;;;;;3.33;3.03;;;;;;;31.06;34.33;94678.56;5055628;28;20021;-78
2022/06/30 11:56:43;;;;;;;4.35;2.85;;;;;;;30.89;34.12;94676.84;5072433;28;20052;-79
2022/06/30 11:59:09;;;;;;;5.65;3.42;;;;;;;30.92;35.22;94672.84;5072611;28;20078;-79